sensor_id;sensor_type;location;lat;lon;timestamp;pressure;altitude;pressure_sealevel;temperature;humidity
71105;BME280;58760;48.716;8.962;2022-11-04T00:01:56;95539.31;;;9.69;91.10
71105;BME280;58760;48.716;8.962;2022-11-04T00:04:24;95541.69;;;9.64;91.82
71105;BME280;58760;48.716;8.962;2022-11-04T00:06:51;95547.06;;;9.70;91.50
71105;BME280;58760;48.716;8.962;2022-11-04T00:09:24;95548.25;;;9.68;91.33
71105;BME280;58760;48.716;8.962;2022-11-04T00:11:50;95557.22;;;9.67;91.62
71105;BME280;58760;48.716;8.962;2022-11-04T00:14:35;95555.94;;;9.63;91.55
71105;BME280;58760;48.716;8.962;2022-11-04T00:17:01;95559.47;;;9.70;91.45
71105;BME280;58760;48.716;8.962;2022-11-04T00:19:50;95567.53;;;9.83;90.28
71105;BME280;58760;48.716;8.962;2022-11-04T00:22:46;95567.09;;;9.79;89.59
71105;BME280;58760;48.716;8.962;2022-11-04T00:25:30;95557.91;;;9.75;90.05
71105;BME280;58760;48.716;8.962;2022-11-04T00:28:16;95564.38;;;9.94;89.76
71105;BME280;58760;48.716;8.962;2022-11-04T00:31:02;95561.06;;;9.92;88.84
71105;BME280;58760;48.716;8.962;2022-11-04T00:33:48;95558.25;;;9.93;88.81
71105;BME280;58760;48.716;8.962;2022-11-04T00:36:13;95549.69;;;9.91;88.51
71105;BME280;58760;48.716;8.962;2022-11-04T00:38:39;95552.50;;;9.90;88.17
71105;BME280;58760;48.716;8.962;2022-11-04T00:41:04;95552.50;;;9.90;88.33
71105;BME280;58760;48.716;8.962;2022-11-04T00:43:57;95551.69;;;9.89;88.75
71105;BME280;58760;48.716;8.962;2022-11-04T00:46:23;95559.19;;;9.86;88.53
71105;BME280;58760;48.716;8.962;2022-11-04T00:48:48;95566.38;;;9.92;88.09
71105;BME280;58760;48.716;8.962;2022-11-04T00:51:14;95572.31;;;9.94;88.00
71105;BME280;58760;48.716;8.962;2022-11-04T00:53:39;95565.19;;;9.94;87.68
71105;BME280;58760;48.716;8.962;2022-11-04T00:56:04;95562.97;;;9.98;87.75
71105;BME280;58760;48.716;8.962;2022-11-04T00:58:30;95561.94;;;9.99;87.73
71105;BME280;58760;48.716;8.962;2022-11-04T01:00:55;95564.38;;;9.94;87.89
71105;BME280;58760;48.716;8.962;2022-11-04T01:03:21;95573.75;;;9.96;88.19
71105;BME280;58760;48.716;8.962;2022-11-04T01:05:46;95575.09;;;9.86;88.68
71105;BME280;58760;48.716;8.962;2022-11-04T01:08:11;95575.75;;;9.88;88.71
71105;BME280;58760;48.716;8.962;2022-11-04T01:10:37;95577.56;;;9.87;88.97
71105;BME280;58760;48.716;8.962;2022-11-04T01:13:11;95574.91;;;9.87;88.57
71105;BME280;58760;48.716;8.962;2022-11-04T01:15:36;95582.16;;;9.79;89.09
71105;BME280;58760;48.716;8.962;2022-11-04T01:18:03;95588.50;;;9.78;88.61
71105;BME280;58760;48.716;8.962;2022-11-04T01:20:29;95584.25;;;9.83;88.18
71105;BME280;58760;48.716;8.962;2022-11-04T01:22:54;95579.13;;;9.82;87.83
71105;BME280;58760;48.716;8.962;2022-11-04T01:25:20;95579.34;;;9.80;88.20
71105;BME280;58760;48.716;8.962;2022-11-04T01:27:45;95579.34;;;9.80;87.84
71105;BME280;58760;48.716;8.962;2022-11-04T01:30:11;95583.47;;;9.89;86.85
71105;BME280;58760;48.716;8.962;2022-11-04T01:32:36;95595.66;;;9.84;86.97
71105;BME280;58760;48.716;8.962;2022-11-04T01:35:01;95593.25;;;9.89;87.00
71105;BME280;58760;48.716;8.962;2022-11-04T01:37:27;95591.00;;;9.86;87.29
71105;BME280;58760;48.716;8.962;2022-11-04T01:39:52;95581.41;;;9.85;86.50
71105;BME280;58760;48.716;8.962;2022-11-04T01:42:21;95577.69;;;9.79;86.03
71105;BME280;58760;48.716;8.962;2022-11-04T01:44:49;95583.56;;;9.75;85.47
71105;BME280;58760;48.716;8.962;2022-11-04T01:47:21;95581.38;;;9.78;85.07
71105;BME280;58760;48.716;8.962;2022-11-04T01:50:02;95584.06;;;9.85;84.88
71105;BME280;58760;48.716;8.962;2022-11-04T01:52:35;95580.88;;;9.68;84.34
71105;BME280;58760;48.716;8.962;2022-11-04T01:55:06;95576.00;;;9.72;83.87
71105;BME280;58760;48.716;8.962;2022-11-04T01:57:40;95578.53;;;9.59;83.43
71105;BME280;58760;48.716;8.962;2022-11-04T02:00:07;95582.81;;;9.60;83.91
71105;BME280;58760;48.716;8.962;2022-11-04T02:02:36;95568.69;;;9.53;83.68
71105;BME280;58760;48.716;8.962;2022-11-04T02:05:05;95562.09;;;9.42;84.19
71105;BME280;58760;48.716;8.962;2022-11-04T02:07:30;95571.59;;;9.58;82.81
71105;BME280;58760;48.716;8.962;2022-11-04T02:09:56;95575.44;;;9.55;82.97
71105;BME280;58760;48.716;8.962;2022-11-04T02:12:22;95572.22;;;9.38;83.53
71105;BME280;58760;48.716;8.962;2022-11-04T02:15:06;95579.19;;;9.39;83.07
71105;BME280;58760;48.716;8.962;2022-11-04T02:17:42;95577.25;;;9.33;83.10
71105;BME280;58760;48.716;8.962;2022-11-04T02:20:18;95580.50;;;9.29;83.10
71105;BME280;58760;48.716;8.962;2022-11-04T02:23:22;95582.38;;;9.35;83.25
71105;BME280;58760;48.716;8.962;2022-11-04T02:28:50;95579.19;;;9.39;83.50
71105;BME280;58760;48.716;8.962;2022-11-04T02:34:20;95560.84;;;9.02;84.83
71105;BME280;58760;48.716;8.962;2022-11-04T02:37:05;95555.16;;;9.20;84.24
71105;BME280;58760;48.716;8.962;2022-11-04T02:39:55;95559.03;;;9.03;84.81
71105;BME280;58760;48.716;8.962;2022-11-04T02:45:41;95563.97;;;8.91;85.88
71105;BME280;58760;48.716;8.962;2022-11-04T02:48:23;95566.44;;;8.92;85.80
71105;BME280;58760;48.716;8.962;2022-11-04T02:53:29;95568.03;;;8.72;87.36
71105;BME280;58760;48.716;8.962;2022-11-04T02:55:57;95561.28;;;8.70;88.76
71105;BME280;58760;48.716;8.962;2022-11-04T02:58:29;95568.31;;;8.63;88.12
71105;BME280;58760;48.716;8.962;2022-11-04T03:00:57;95569.69;;;8.59;88.88
71105;BME280;58760;48.716;8.962;2022-11-04T03:03:28;95564.59;;;8.57;88.34
71105;BME280;58760;48.716;8.962;2022-11-04T03:05:57;95546.34;;;8.77;86.28
71105;BME280;58760;48.716;8.962;2022-11-04T03:08:46;95546.56;;;8.97;84.75
71105;BME280;58760;48.716;8.962;2022-11-04T03:11:17;95555.78;;;8.86;85.51
71105;BME280;58760;48.716;8.962;2022-11-04T03:13:49;95552.41;;;8.92;84.50
71105;BME280;58760;48.716;8.962;2022-11-04T03:16:22;95542.94;;;8.83;84.87
71105;BME280;58760;48.716;8.962;2022-11-04T03:21:36;95559.19;;;8.80;85.06
71105;BME280;58760;48.716;8.962;2022-11-04T03:24:03;95560.97;;;8.58;85.89
71105;BME280;58760;48.716;8.962;2022-11-04T03:32:21;95587.81;;;8.62;86.05
71105;BME280;58760;48.716;8.962;2022-11-04T03:34:49;95574.72;;;8.54;85.86
71105;BME280;58760;48.716;8.962;2022-11-04T03:37:14;95587.84;;;8.47;86.19
71105;BME280;58760;48.716;8.962;2022-11-04T03:39:40;95597.25;;;8.35;86.47
71105;BME280;58760;48.716;8.962;2022-11-04T03:42:08;95595.59;;;8.34;87.13
71105;BME280;58760;48.716;8.962;2022-11-04T03:44:54;95605.28;;;8.42;86.11
71105;BME280;58760;48.716;8.962;2022-11-04T03:47:23;95612.19;;;8.28;86.62
71105;BME280;58760;48.716;8.962;2022-11-04T03:49:51;95618.16;;;8.22;87.43
71105;BME280;58760;48.716;8.962;2022-11-04T03:52:20;95614.34;;;8.24;86.20
71105;BME280;58760;48.716;8.962;2022-11-04T03:54:46;95605.28;;;8.42;85.44
71105;BME280;58760;48.716;8.962;2022-11-04T03:57:33;95604.41;;;8.26;85.64
71105;BME280;58760;48.716;8.962;2022-11-04T04:02:44;95607.41;;;8.23;86.17
71105;BME280;58760;48.716;8.962;2022-11-04T04:05:22;95623.34;;;8.15;87.76
71105;BME280;58760;48.716;8.962;2022-11-04T04:08:09;95617.16;;;8.08;87.06
71105;BME280;58760;48.716;8.962;2022-11-04T04:10:47;95616.84;;;8.03;87.62
71105;BME280;58760;48.716;8.962;2022-11-04T04:16:35;95613.66;;;7.93;88.65
71105;BME280;58760;48.716;8.962;2022-11-04T04:19:06;95611.34;;;7.90;89.06
71105;BME280;58760;48.716;8.962;2022-11-04T04:21:41;95613.91;;;7.83;89.53
71105;BME280;58760;48.716;8.962;2022-11-04T04:24:10;95615.06;;;7.81;90.53
71105;BME280;58760;48.716;8.962;2022-11-04T04:26:56;95609.88;;;7.73;90.54
71105;BME280;58760;48.716;8.962;2022-11-04T04:29:42;95611.38;;;7.67;91.45
71105;BME280;58760;48.716;8.962;2022-11-04T04:32:09;95616.22;;;7.64;92.23
71105;BME280;58760;48.716;8.962;2022-11-04T04:34:35;95632.88;;;7.64;92.19
71105;BME280;58760;48.716;8.962;2022-11-04T04:37:22;95637.63;;;7.69;92.09
71105;BME280;58760;48.716;8.962;2022-11-04T04:39:58;95630.81;;;7.74;90.58
71105;BME280;58760;48.716;8.962;2022-11-04T04:42:43;95632.91;;;7.79;90.35
71105;BME280;58760;48.716;8.962;2022-11-04T04:45:37;95635.56;;;7.79;89.46
71105;BME280;58760;48.716;8.962;2022-11-04T04:48:05;95632.91;;;7.79;89.14
71105;BME280;58760;48.716;8.962;2022-11-04T04:50:36;95624.19;;;7.78;89.27
71105;BME280;58760;48.716;8.962;2022-11-04T04:53:02;95606.22;;;7.74;89.42
71105;BME280;58760;48.716;8.962;2022-11-04T04:55:28;95594.38;;;7.70;89.82
71105;BME280;58760;48.716;8.962;2022-11-04T04:57:56;95577.88;;;7.68;89.93
71105;BME280;58760;48.716;8.962;2022-11-04T05:00:21;95579.91;;;7.66;90.53
71105;BME280;58760;48.716;8.962;2022-11-04T05:02:47;95570.06;;;7.60;90.95
71105;BME280;58760;48.716;8.962;2022-11-04T05:05:13;95550.28;;;7.56;91.08
71105;BME280;58760;48.716;8.962;2022-11-04T05:07:39;95545.34;;;7.53;91.06
71105;BME280;58760;48.716;8.962;2022-11-04T05:10:05;95535.75;;;7.60;91.26
71105;BME280;58760;48.716;8.962;2022-11-04T05:12:34;95518.25;;;7.59;91.37
71105;BME280;58760;48.716;8.962;2022-11-04T05:15:18;95524.09;;;7.54;91.47
71105;BME280;58760;48.716;8.962;2022-11-04T05:17:43;95520.31;;;7.49;91.52
71105;BME280;58760;48.716;8.962;2022-11-04T05:20:09;95528.91;;;7.51;91.04
71105;BME280;58760;48.716;8.962;2022-11-04T05:22:34;95516.69;;;7.50;90.76
71105;BME280;58760;48.716;8.962;2022-11-04T05:25:00;95531.06;;;7.47;90.57
71105;BME280;58760;48.716;8.962;2022-11-04T05:27:25;95537.50;;;7.45;91.10
71105;BME280;58760;48.716;8.962;2022-11-04T05:29:51;95560.09;;;7.47;91.48
71105;BME280;58760;48.716;8.962;2022-11-04T05:32:16;95562.75;;;7.47;91.92
71105;BME280;58760;48.716;8.962;2022-11-04T05:34:41;95574.91;;;7.48;92.23
71105;BME280;58760;48.716;8.962;2022-11-04T05:37:07;95573.09;;;7.49;92.57
71105;BME280;58760;48.716;8.962;2022-11-04T05:39:32;95576.75;;;7.48;91.97
71105;BME280;58760;48.716;8.962;2022-11-04T05:41:58;95580.75;;;7.44;92.12
71105;BME280;58760;48.716;8.962;2022-11-04T05:44:25;95583.28;;;7.37;92.00
71105;BME280;58760;48.716;8.962;2022-11-04T05:46:50;95584.59;;;7.33;92.26
71105;BME280;58760;48.716;8.962;2022-11-04T05:49:16;95583.78;;;7.32;92.37
71105;BME280;58760;48.716;8.962;2022-11-04T05:51:41;95582.72;;;7.42;92.15
71105;BME280;58760;48.716;8.962;2022-11-04T05:54:07;95585.44;;;7.33;92.00
71105;BME280;58760;48.716;8.962;2022-11-04T05:56:33;95581.03;;;7.26;92.04
71105;BME280;58760;48.716;8.962;2022-11-04T05:58:58;95574.44;;;7.22;92.44
71105;BME280;58760;48.716;8.962;2022-11-04T06:01:31;95583.06;;;7.16;92.64
71105;BME280;58760;48.716;8.962;2022-11-04T06:03:57;95566.97;;;7.11;92.75
71105;BME280;58760;48.716;8.962;2022-11-04T06:06:25;95557.41;;;7.10;93.04
71105;BME280;58760;48.716;8.962;2022-11-04T06:08:51;95560.88;;;7.10;93.08
71105;BME280;58760;48.716;8.962;2022-11-04T06:11:19;95546.84;;;7.10;93.43
71105;BME280;58760;48.716;8.962;2022-11-04T06:13:44;95554.59;;;7.11;94.05
71105;BME280;58760;48.716;8.962;2022-11-04T06:16:10;95556.53;;;7.17;93.66
71105;BME280;58760;48.716;8.962;2022-11-04T06:18:35;95567.13;;;7.09;93.23
71105;BME280;58760;48.716;8.962;2022-11-04T06:21:09;95567.47;;;7.06;93.16
71105;BME280;58760;48.716;8.962;2022-11-04T06:23:34;95570.13;;;7.06;93.12
71105;BME280;58760;48.716;8.962;2022-11-04T06:26:00;95582.31;;;7.07;93.63
71105;BME280;58760;48.716;8.962;2022-11-04T06:28:25;95578.50;;;7.10;93.70
71105;BME280;58760;48.716;8.962;2022-11-04T06:30:50;95584.25;;;7.13;93.93
71105;BME280;58760;48.716;8.962;2022-11-04T06:33:16;95589.16;;;7.16;93.49
71105;BME280;58760;48.716;8.962;2022-11-04T06:35:41;95594.56;;;7.23;93.23
71105;BME280;58760;48.716;8.962;2022-11-04T06:38:07;95599.25;;;7.13;92.92
71105;BME280;58760;48.716;8.962;2022-11-04T06:40:32;95599.44;;;7.11;93.25
71105;BME280;58760;48.716;8.962;2022-11-04T06:42:57;95606.06;;;7.07;93.02
71105;BME280;58760;48.716;8.962;2022-11-04T06:45:23;95612.63;;;7.11;93.32
71105;BME280;58760;48.716;8.962;2022-11-04T06:47:48;95614.59;;;7.09;93.40
71105;BME280;58760;48.716;8.962;2022-11-04T06:50:13;95623.19;;;7.11;93.65
71105;BME280;58760;48.716;8.962;2022-11-04T06:52:39;95631.91;;;7.12;94.25
71105;BME280;58760;48.716;8.962;2022-11-04T06:55:05;95633.72;;;7.11;94.46
71105;BME280;58760;48.716;8.962;2022-11-04T06:57:31;95626.28;;;7.15;94.81
71105;BME280;58760;48.716;8.962;2022-11-04T06:59:56;95626.28;;;7.15;94.53
71105;BME280;58760;48.716;8.962;2022-11-04T07:02:22;95616.50;;;7.23;94.22
71105;BME280;58760;48.716;8.962;2022-11-04T07:04:47;95619.09;;;7.31;93.87
71105;BME280;58760;48.716;8.962;2022-11-04T07:07:12;95611.34;;;7.30;93.96
71105;BME280;58760;48.716;8.962;2022-11-04T07:09:38;95610.75;;;7.43;93.79
71105;BME280;58760;48.716;8.962;2022-11-04T07:12:04;95602.03;;;7.42;93.70
71105;BME280;58760;48.716;8.962;2022-11-04T07:14:29;95600.69;;;7.46;93.88
71105;BME280;58760;48.716;8.962;2022-11-04T07:16:55;95596.56;;;7.44;94.25
71105;BME280;58760;48.716;8.962;2022-11-04T07:19:20;95597.91;;;7.40;94.49
71105;BME280;58760;48.716;8.962;2022-11-04T07:21:46;95597.28;;;7.38;94.46
71105;BME280;58760;48.716;8.962;2022-11-04T07:24:11;95598.56;;;7.42;94.26
71105;BME280;58760;48.716;8.962;2022-11-04T07:26:36;95593.75;;;7.45;93.99
71105;BME280;58760;48.716;8.962;2022-11-04T07:29:02;95590.59;;;7.50;94.03
71105;BME280;58760;48.716;8.962;2022-11-04T07:31:27;95587.19;;;7.64;93.26
71105;BME280;58760;48.716;8.962;2022-11-04T07:33:53;95596.38;;;7.68;93.14
71105;BME280;58760;48.716;8.962;2022-11-04T07:36:18;95599.84;;;7.68;92.99
71105;BME280;58760;48.716;8.962;2022-11-04T07:38:44;95600.31;;;7.72;93.54
71105;BME280;58760;48.716;8.962;2022-11-04T07:41:10;95586.28;;;7.71;93.23
71105;BME280;58760;48.716;8.962;2022-11-04T07:43:35;95586.03;;;7.81;92.20
71105;BME280;58760;48.716;8.962;2022-11-04T07:46:06;95583.22;;;7.82;92.01
71105;BME280;58760;48.716;8.962;2022-11-04T07:48:31;95571.03;;;7.96;91.20
71105;BME280;58760;48.716;8.962;2022-11-04T07:50:58;95575.97;;;7.99;91.94
71105;BME280;58760;48.716;8.962;2022-11-04T07:53:25;95573.63;;;8.19;90.85
71105;BME280;58760;48.716;8.962;2022-11-04T07:55:50;95574.34;;;8.13;90.96
71105;BME280;58760;48.716;8.962;2022-11-04T07:58:19;95569.84;;;8.13;91.55
71105;BME280;58760;48.716;8.962;2022-11-04T08:00:45;95576.06;;;8.20;92.10
71105;BME280;58760;48.716;8.962;2022-11-04T08:03:10;95574.06;;;8.22;92.03
71105;BME280;58760;48.716;8.962;2022-11-04T08:05:36;95573.38;;;8.28;91.76
71105;BME280;58760;48.716;8.962;2022-11-04T08:08:02;95566.91;;;8.31;91.12
71105;BME280;58760;48.716;8.962;2022-11-04T08:10:27;95564.34;;;8.37;90.34
71105;BME280;58760;48.716;8.962;2022-11-04T08:12:53;95559.41;;;8.34;90.66
71105;BME280;58760;48.716;8.962;2022-11-04T08:15:18;95556.31;;;8.46;91.50
71105;BME280;58760;48.716;8.962;2022-11-04T08:17:44;95549.72;;;8.56;90.77
71105;BME280;58760;48.716;8.962;2022-11-04T08:20:09;95550.53;;;8.71;89.91
71105;BME280;58760;48.716;8.962;2022-11-04T08:22:34;95555.56;;;8.66;89.88
71105;BME280;58760;48.716;8.962;2022-11-04T08:25:00;95557.75;;;8.77;89.19
71105;BME280;58760;48.716;8.962;2022-11-04T08:27:25;95559.25;;;8.86;89.73
71105;BME280;58760;48.716;8.962;2022-11-04T08:29:51;95565.75;;;8.84;89.75
71105;BME280;58760;48.716;8.962;2022-11-04T08:32:16;95565.53;;;9.00;88.32
71105;BME280;58760;48.716;8.962;2022-11-04T08:34:42;95570.81;;;9.00;88.76
71105;BME280;58760;48.716;8.962;2022-11-04T08:37:07;95560.38;;;9.13;87.95
71105;BME280;58760;48.716;8.962;2022-11-04T08:39:33;95558.03;;;9.25;86.92
71105;BME280;58760;48.716;8.962;2022-11-04T08:41:58;95564.59;;;9.29;86.45
71105;BME280;58760;48.716;8.962;2022-11-04T08:44:24;95560.25;;;9.42;85.83
71105;BME280;58760;48.716;8.962;2022-11-04T08:46:49;95557.41;;;9.44;84.58
71105;BME280;58760;48.716;8.962;2022-11-04T08:49:14;95565.19;;;9.45;85.73
71105;BME280;58760;48.716;8.962;2022-11-04T08:51:43;95566.03;;;9.53;84.21
71105;BME280;58760;48.716;8.962;2022-11-04T08:54:09;95572.59;;;9.57;84.92
71105;BME280;58760;48.716;8.962;2022-11-04T08:56:36;95573.94;;;9.67;83.66
71105;BME280;58760;48.716;8.962;2022-11-04T08:59:03;95579.66;;;9.71;84.13
71105;BME280;58760;48.716;8.962;2022-11-04T09:01:31;95585.06;;;9.84;82.64
71105;BME280;58760;48.716;8.962;2022-11-04T09:03:57;95584.47;;;9.88;82.50
71105;BME280;58760;48.716;8.962;2022-11-04T09:06:25;95588.78;;;9.89;82.42
71105;BME280;58760;48.716;8.962;2022-11-04T09:08:51;95594.22;;;10.09;82.21
71105;BME280;58760;48.716;8.962;2022-11-04T09:11:19;95587.72;;;10.12;81.20
71105;BME280;58760;48.716;8.962;2022-11-04T09:13:45;95594.34;;;10.22;81.31
71105;BME280;58760;48.716;8.962;2022-11-04T09:16:12;95594.75;;;10.19;80.99
71105;BME280;58760;48.716;8.962;2022-11-04T09:18:39;95601.53;;;10.28;79.60
71105;BME280;58760;48.716;8.962;2022-11-04T09:21:06;95598.00;;;10.21;80.43
71105;BME280;58760;48.716;8.962;2022-11-04T09:23:32;95609.84;;;10.19;80.25
71105;BME280;58760;48.716;8.962;2022-11-04T09:26:01;95599.44;;;10.17;81.89
71105;BME280;58760;48.716;8.962;2022-11-04T09:28:27;95600.53;;;10.29;80.49
71105;BME280;58760;48.716;8.962;2022-11-04T09:30:52;95598.88;;;10.28;81.27
71105;BME280;58760;48.716;8.962;2022-11-04T09:33:18;95605.44;;;10.32;80.90
71105;BME280;58760;48.716;8.962;2022-11-04T09:35:43;95610.59;;;10.40;79.84
71105;BME280;58760;48.716;8.962;2022-11-04T09:38:18;95614.50;;;10.44;78.22
71105;BME280;58760;48.716;8.962;2022-11-04T09:40:43;95611.69;;;10.53;78.83
71105;BME280;58760;48.716;8.962;2022-11-04T09:45:57;95604.81;;;10.65;76.21
71105;BME280;58760;48.716;8.962;2022-11-04T09:48:39;95606.47;;;10.66;76.38
71105;BME280;58760;48.716;8.962;2022-11-04T09:51:06;95604.59;;;10.60;77.15
71105;BME280;58760;48.716;8.962;2022-11-04T09:56:54;95593.16;;;10.59;78.29
71105;BME280;58760;48.716;8.962;2022-11-04T09:58:55;95585.09;;;10.80;76.66
71105;BME280;58760;48.716;8.962;2022-11-04T10:04:00;95569.19;;;10.80;75.44
71105;BME280;58760;48.716;8.962;2022-11-04T10:12:04;95572.91;;;10.92;73.42
71105;BME280;58760;48.716;8.962;2022-11-04T10:22:55;95572.75;;;11.07;73.31
71105;BME280;58760;48.716;8.962;2022-11-04T10:25:27;95571.56;;;11.16;72.93
71105;BME280;58760;48.716;8.962;2022-11-04T10:27:54;95565.84;;;11.19;72.95
71105;BME280;58760;48.716;8.962;2022-11-04T10:30:23;95561.63;;;11.38;71.64
71105;BME280;58760;48.716;8.962;2022-11-04T10:40:46;95560.06;;;11.96;70.14
71105;BME280;58760;48.716;8.962;2022-11-04T10:43:15;95557.41;;;11.89;69.48
71105;BME280;58760;48.716;8.962;2022-11-04T10:46:00;95562.03;;;11.68;69.60
71105;BME280;58760;48.716;8.962;2022-11-04T10:48:31;95564.91;;;11.66;69.81
71105;BME280;58760;48.716;8.962;2022-11-04T10:51:01;95557.53;;;11.48;70.13
71105;BME280;58760;48.716;8.962;2022-11-04T10:53:28;95561.84;;;11.56;70.63
71105;BME280;58760;48.716;8.962;2022-11-04T10:56:02;95563.50;;;11.57;70.00
71105;BME280;58760;48.716;8.962;2022-11-04T10:58:34;95560.19;;;11.62;70.72
71105;BME280;58760;48.716;8.962;2022-11-04T11:01:30;95552.03;;;11.57;69.89
71105;BME280;58760;48.716;8.962;2022-11-04T11:03:57;95554.06;;;11.61;69.82
71105;BME280;58760;48.716;8.962;2022-11-04T11:06:33;95553.63;;;11.51;70.25
71105;BME280;58760;48.716;8.962;2022-11-04T11:09:17;95545.53;;;11.72;72.09
71105;BME280;58760;48.716;8.962;2022-11-04T11:11:47;95545.13;;;11.88;70.46
71105;BME280;58760;48.716;8.962;2022-11-04T11:16:53;95538.97;;;11.88;69.13
71105;BME280;58760;48.716;8.962;2022-11-04T11:19:20;95542.66;;;12.06;69.02
71105;BME280;58760;48.716;8.962;2022-11-04T11:21:54;95541.84;;;12.06;69.75
71105;BME280;58760;48.716;8.962;2022-11-04T11:24:23;95542.63;;;12.13;70.35
71105;BME280;58760;48.716;8.962;2022-11-04T11:27:01;95544.09;;;12.22;68.57
71105;BME280;58760;48.716;8.962;2022-11-04T11:29:36;95531.56;;;12.29;68.07
71105;BME280;58760;48.716;8.962;2022-11-04T11:32:26;95531.53;;;12.42;68.76
71105;BME280;58760;48.716;8.962;2022-11-04T11:34:54;95526.06;;;12.31;68.89
71105;BME280;58760;48.716;8.962;2022-11-04T11:37:27;95523.84;;;12.08;68.93
71105;BME280;58760;48.716;8.962;2022-11-04T11:39:55;95513.78;;;12.23;68.38
71105;BME280;58760;48.716;8.962;2022-11-04T11:42:21;95508.22;;;12.44;69.16
71105;BME280;58760;48.716;8.962;2022-11-04T11:44:53;95504.63;;;12.70;67.84
71105;BME280;58760;48.716;8.962;2022-11-04T11:50:17;95506.09;;;13.04;66.95
71105;BME280;58760;48.716;8.962;2022-11-04T11:52:45;95504.31;;;12.91;67.64
71105;BME280;58760;48.716;8.962;2022-11-04T11:58:09;95511.66;;;13.40;65.21
71105;BME280;58760;48.716;8.962;2022-11-04T12:03:32;95509.22;;;13.88;62.63
71105;BME280;58760;48.716;8.962;2022-11-04T12:06:23;95508.75;;;13.48;64.33
71105;BME280;58760;48.716;8.962;2022-11-04T12:16:57;95503.41;;;13.17;67.25
71105;BME280;58760;48.716;8.962;2022-11-04T12:19:55;95512.16;;;13.24;67.07
71105;BME280;58760;48.716;8.962;2022-11-04T12:22:46;95505.81;;;13.25;67.43
71105;BME280;58760;48.716;8.962;2022-11-04T12:31:00;95507.22;;;13.28;66.30
71105;BME280;58760;48.716;8.962;2022-11-04T12:34:10;95498.63;;;13.57;65.90
71105;BME280;58760;48.716;8.962;2022-11-04T12:37:02;95504.69;;;13.71;64.56
71105;BME280;58760;48.716;8.962;2022-11-04T12:39:43;95511.66;;;13.40;66.04
71105;BME280;58760;48.716;8.962;2022-11-04T12:48:04;95512.38;;;13.29;66.26
71105;BME280;58760;48.716;8.962;2022-11-04T12:50:46;95522.63;;;13.26;67.42
71105;BME280;58760;48.716;8.962;2022-11-04T12:56:21;95513.75;;;14.12;63.84
71105;BME280;58760;48.716;8.962;2022-11-04T13:01:51;95519.38;;;13.80;58.89
71105;BME280;58760;48.716;8.962;2022-11-04T13:04:22;95533.41;;;12.93;61.36
71105;BME280;58760;48.716;8.962;2022-11-04T13:07:02;95537.28;;;12.26;62.19
71105;BME280;58760;48.716;8.962;2022-11-04T13:09:45;95538.56;;;13.63;58.51
71105;BME280;58760;48.716;8.962;2022-11-04T13:12:20;95546.09;;;13.42;58.97
71105;BME280;58760;48.716;8.962;2022-11-04T13:15:00;95549.53;;;13.11;60.10
71105;BME280;58760;48.716;8.962;2022-11-04T13:17:34;95548.06;;;12.64;62.31
71105;BME280;58760;48.716;8.962;2022-11-04T13:22:38;95551.66;;;12.05;63.75
71105;BME280;58760;48.716;8.962;2022-11-04T13:25:28;95547.31;;;11.52;65.72
71105;BME280;58760;48.716;8.962;2022-11-04T13:27:56;95548.94;;;11.33;66.94
71105;BME280;58760;48.716;8.962;2022-11-04T13:30:35;95553.59;;;11.18;68.00
71105;BME280;58760;48.716;8.962;2022-11-04T13:44:04;95584.72;;;10.42;72.10
71105;BME280;58760;48.716;8.962;2022-11-04T13:46:37;95588.53;;;10.33;73.67
71105;BME280;58760;48.716;8.962;2022-11-04T13:51:38;95606.50;;;9.89;79.78
71105;BME280;58760;48.716;8.962;2022-11-04T13:54:06;95616.81;;;9.77;81.81
71105;BME280;58760;48.716;8.962;2022-11-04T13:56:39;95616.91;;;9.69;84.40
71105;BME280;58760;48.716;8.962;2022-11-04T13:59:26;95623.28;;;9.54;86.38
71105;BME280;58760;48.716;8.962;2022-11-04T14:04:44;95624.59;;;9.43;88.06
71105;BME280;58760;48.716;8.962;2022-11-04T14:07:14;95619.00;;;9.53;88.65
71105;BME280;58760;48.716;8.962;2022-11-04T14:15:06;95605.00;;;9.80;90.20
71105;BME280;58760;48.716;8.962;2022-11-04T14:20:07;95615.78;;;9.99;89.05
71105;BME280;58760;48.716;8.962;2022-11-04T14:33:35;95616.81;;;10.05;88.19
71105;BME280;58760;48.716;8.962;2022-11-04T14:41:59;95609.09;;;10.04;86.13
71105;BME280;58760;48.716;8.962;2022-11-04T14:44:29;95602.56;;;10.06;86.89
71105;BME280;58760;48.716;8.962;2022-11-04T14:47:12;95606.13;;;9.92;84.87
71105;BME280;58760;48.716;8.962;2022-11-04T14:49:41;95616.72;;;9.92;85.78
71105;BME280;58760;48.716;8.962;2022-11-04T14:52:35;95621.16;;;9.85;85.89
71105;BME280;58760;48.716;8.962;2022-11-04T14:57:40;95617.13;;;9.68;85.62
71105;BME280;58760;48.716;8.962;2022-11-04T15:00:36;95626.50;;;9.70;85.78
71105;BME280;58760;48.716;8.962;2022-11-04T15:05:28;95641.44;;;9.57;86.40
71105;BME280;58760;48.716;8.962;2022-11-04T15:07:55;95639.38;;;9.52;87.15
71105;BME280;58760;48.716;8.962;2022-11-04T15:10:23;95649.09;;;9.45;87.98
71105;BME280;58760;48.716;8.962;2022-11-04T15:12:50;95639.41;;;9.37;88.77
71105;BME280;58760;48.716;8.962;2022-11-04T15:15:36;95647.38;;;9.37;89.31
71105;BME280;58760;48.716;8.962;2022-11-04T15:18:08;95650.66;;;9.39;89.73
71105;BME280;58760;48.716;8.962;2022-11-04T15:20:57;95651.09;;;9.43;89.84
71105;BME280;58760;48.716;8.962;2022-11-04T15:23:28;95647.44;;;9.44;89.28
71105;BME280;58760;48.716;8.962;2022-11-04T15:25:58;95651.28;;;9.41;89.38
71105;BME280;58760;48.716;8.962;2022-11-04T15:28:28;95652.66;;;9.37;89.66
71105;BME280;58760;48.716;8.962;2022-11-04T15:33:41;95651.75;;;9.30;89.49
71105;BME280;58760;48.716;8.962;2022-11-04T15:36:13;95656.31;;;9.36;90.20
71105;BME280;58760;48.716;8.962;2022-11-04T15:38:43;95650.94;;;9.30;90.91
71105;BME280;58760;48.716;8.962;2022-11-04T15:41:10;95659.44;;;9.25;90.65
71105;BME280;58760;48.716;8.962;2022-11-04T15:43:54;95660.38;;;9.18;90.21
71105;BME280;58760;48.716;8.962;2022-11-04T15:46:21;95658.53;;;9.18;89.10
71105;BME280;58760;48.716;8.962;2022-11-04T15:49:05;95663.03;;;9.18;87.65
71105;BME280;58760;48.716;8.962;2022-11-04T15:51:38;95666.94;;;9.07;88.40